Robins Air Force Base
KWRB : now visible

Airfield :











YOU CAN JOIN US ON...

 
LOGIN :

Register | Disclaimer

   EN    FR    IT 

 









Legend :    VFR   Marginal VFR   IFR   Intensive IFR   Very Intensive IFR
Visi :
Ceiling :
>= 8 km
>= 3000ft
5 to 8 km
1000 to 3000 ft
1500m to 5 km
500 to 1000 ft
800 to 1500m
200 to 500 ft
< 800m
< 200 ft
Symbols :   Thunderstorms  Fog  Heavy snow  Heavy precipitations  Wind > 20 kt







- Airport Elevation : 294 ft


KWRB - Robins Air Force Base

CURRENT METAR :
  • 252356Z 22005KT 10SM SCT060 24/15 A2986 RMK AO2A SLP113 T02400147 10286 20240 58004

EXPIRED METARs :
  • 252256Z 26005KT 10SM FEW055 BKN140 26/15 A2986 RMK AO2A SLP112 T02590147
  • 252156Z 25010G16KT 10SM SCT055 BKN140 27/14 A2988 RMK AO2A SLP119 T02670141

TAF AMD TAF KWRB
Valid from the 25 at 22:00 until the 27 at 03:00 UTC


252215Z 2522/2703 24009KT 9999 BKN150 QNH2985INS
TEMPO 2522/2523 25012G20KT
BECMG 2522/2523 22012KT 9999 BKN150 QNH2982INS
BECMG 2602/2603 18012KT 9000 -SHRA BKN030 QNH2971INS
BECMG 2608/2609 22012G18KT 8000 -SHRA OVC010 QNH2969INS
BECMG 2617/2618 30015G25KT 9999 NSW SCT035 520003 QNH2977INS
BECMG 2622/2623 31010KT 9999 FEW040 QNH2982INS TX27/2522Z TN16/2611Z
KZTL FIR / North America



MET'MAP, your aeronautical weather chart ! - Copyright ORBIFLY December 2007 - Disclaimer

ORBIFLY MET'MAP TEAM :

Programming & Development : Alexandra Zaïnal
Concept & Development : Baudouin d'Aumeries
Co-Development & Prog : Marc-Olivier Méhu
Technical & hardware support : Manuel Goepfert

Contact : metmap@orbifly.com




SOURCES & CREDITS :

   NOAA       Earth
Advisory